Holstein, Nebraska
Current Conditions -  °F | °C
As of 8:53 PM on Sunday 23 Nov 2014 (Local Time) from KHSI Reporting Station
Clear Clear  
Wind Chill: 25°   Ceiling: Unl
Heat Index: 34°   Visibility: 10mi
Dew Point: 24°   Wind: 12mph
Humidity: 67%   Direction: 310°NW
Pressure: 29.66"   Gusts: NA
Location:  40.47°N, 98.65°W
Report Text: KHSI 240253Z AUTO 31010KT 10SM CLR 01/M04 A2966 RMK AO2 SLP053 T00111044 51015
Loading
Personal Weather Stations






























Interactive Weather Map New forecast layout! Learn more

10-Day Weather Forecast

Advertisements
Track Severe Weather on mobile